Terminal Aerodrome Forecast
Issued by NWS Charleston, WV

Current Version | Previous Version | Graphics & Text | Print | Product List | Glossary On
Versions: 1 2 3 4 5 6 7 8 9 10 11 12 13 14 15 16 17 18 19 20 21 22 23 24 25 26 27 28
000
FTUS41 KRLX 310914 AAA
TAFHTS
TAF AMD
KHTS 310914Z 3109/0106 20005KT P6SM BKN050
      TEMPO 3109/3112 5SM -SHRA
     FM311500 23008KT P6SM VCTS BKN040CB
     FM311900 23008KT 4SM TSRA BKN035CB BKN080
     FM312100 22006KT P6SM BKN035
     FM010300 VRB03KT 5SM BR BKN030=

USA.gov is the U.S. government's official web portal to all federal, state and local government web resources and services.